Address 0xb0861d127415a601c0c2e990317bf655300e502d 4

Overview

Balance:
0.230868190263009753 AVAX

AVAX Value:
$4.81 (@ $20.83/AVAX)

Token:
Txn Hash Method
Block
From
To
Value [Txn Fee]
0xed52e1ab33957959613c1968c7f3cf4ed1e686d5185805540f27ec7cc047c433Get Reward246002352023-01-06 17:31:4526 days 5 hrs ago0xb0861d127415a601c0c2e990317bf655300e502dOUT 0x1ca865d89ccabc6805699afc5f375b6366371b5b0 AVAX0.00273109 26.5
0x6f9266ecde00cb66352f4d5ccf1c7f4c8774d3ae010640a3a36b2d0843e0885cUpdate246002212023-01-06 17:31:1726 days 5 hrs ago0xb0861d127415a601c0c2e990317bf655300e502dOUT 0x88888888847df39cf1dfe1a05c904b4e603c94160 AVAX0.0058853055 26.5
0x3f924431e51a1baf7b5aa58f4d69b9363fd0cfdae11dd4fa004560e14ffcea94Public Sale Mint240223152022-12-23 21:51:2040 days 1 hr ago0xb0861d127415a601c0c2e990317bf655300e502dOUT 0x5fbf285083104bbe208e11eed8860e384f248dfe0 AVAX0.00307135 26.5
0x2db422fd9088adb48a1b350c9def45dfaae472f57beb1842bd26500a353664ecSwap Exact AVAX ...235905582022-12-13 17:43:5150 days 5 hrs ago0xb0861d127415a601c0c2e990317bf655300e502dOUT Trader Joe: LBRouter24.75 AVAX0.003441767 26.5
0x7fb181a288c0b8e9d7d9060276ae60de281bc53a82c39abb3831f3e58003a852Swap Exact AVAX ...235905212022-12-13 17:42:3750 days 5 hrs ago0xb0861d127415a601c0c2e990317bf655300e502dOUT Trader Joe: LBRouter30 AVAX0.003441767 26.5
0x3a2b644cd4afaebe29f1db21f3c21943242b176538f902f1ca339f939753b087Swap Exact AVAX ...235904952022-12-13 17:41:4550 days 5 hrs ago0xb0861d127415a601c0c2e990317bf655300e502dOUT Trader Joe: LBRouter30 AVAX0.003441767 26.5
0xfeb699a6f2a2e46967e60f5caf0fe62a909a798b20abaac34faef55477a65003Swap Exact Token...235904722022-12-13 17:40:5850 days 5 hrs ago0xb0861d127415a601c0c2e990317bf655300e502dOUT Trader Joe: LBRouter0 AVAX0.0031321145 26.5
0x45dff22d9bfd16baadda10c81ef9694ec2c8c93b5cda723957bc643f5c04b11bApprove235903852022-12-13 17:38:0550 days 5 hrs ago0xb0861d127415a601c0c2e990317bf655300e502dOUT 0x77777777777d4554c39223c354a05825b2e8faa30 AVAX0.001232197 26.5
0xe5b86e0e0399d43213f18b889fdeec4766cebd3714627d14f517eb982c6dd9e1Swap Exact AVAX ...235903552022-12-13 17:37:0450 days 5 hrs ago0xb0861d127415a601c0c2e990317bf655300e502dOUT Trader Joe: LBRouter30 AVAX0.003162139 26.5
0xec57f8e64d2143775b89f6ddcac6f516c92fcf40e13976dc270b3ea58e6757ceSwap Exact AVAX ...235903202022-12-13 17:35:5550 days 5 hrs ago0xb0861d127415a601c0c2e990317bf655300e502dOUT Trader Joe: LBRouter30 AVAX0.003615077 26.5
0xf3050a205885e5524e8c9160e9b833dc39a5198594c1b96b4150385a7197bfb4Swap Exact AVAX ...235902052022-12-13 17:32:0450 days 5 hrs ago0xb0861d127415a601c0c2e990317bf655300e502dOUT Trader Joe: LBRouter30 AVAX0.003615289 26.5
0x7d0f84cf39d1d636a61d9e2b94ffd4d5322d59ede60342ef0a3cb3c83b4379eaTransfer235899052022-12-13 17:22:0250 days 5 hrs agomexc.com IN 0xb0861d127415a601c0c2e990317bf655300e502d114.95 AVAX0.000709833.8
0xef66275daee26bf0b0ec7a8a71a7b978d32dba007eed9aa6487114a2a69fd4c3Update200733392022-09-20 16:52:25134 days 6 hrs ago0xb0861d127415a601c0c2e990317bf655300e502dOUT 0x88888888847df39cf1dfe1a05c904b4e603c94160 AVAX0.0043091915 26.5
0x19459c8930e5666da5d61cee3f90c357f082301c27117a46af70b7f9a9e819c7Swap Exact Token...200469742022-09-19 22:15:15135 days 55 mins ago0xb0861d127415a601c0c2e990317bf655300e502dOUT Trader Joe: Router0 AVAX0.0047989645 26.5
0x85a319d64a8c6968fab65e1fc46b90ec0b0de40628dd9e9d5dc4a8c231e4cd20Swap Tokens For ...200469262022-09-19 22:13:14135 days 57 mins ago0xb0861d127415a601c0c2e990317bf655300e502dOUT Trader Joe: Router0 AVAX0.0052519025 26.5
0xcacf3d069c42d46fcd8c5e2a0af9cdded5c46ec9edc0a6d19907935d27771846Swap Exact AVAX ...200457712022-09-19 21:25:36135 days 1 hr ago0xb0861d127415a601c0c2e990317bf655300e502dOUT Trader Joe: Router32.8 AVAX0.0040458345 26.5
0x8edd2facb1278c7beb2a31f87c6e3d5ca76a9da58e9a191357a8e96eb1b180ffSwap AVAX For Ex...200456372022-09-19 21:20:12135 days 1 hr ago0xb0861d127415a601c0c2e990317bf655300e502dOUT Trader Joe: Router32.640375367683179 AVAX0.000840951 26.5
0x94514511d14f6c1c842a8b38d065479ba857e4577471f8522edbb5ff25fb9c0aTransfer200454832022-09-19 21:14:03135 days 1 hr agomexc.com IN 0xb0861d127415a601c0c2e990317bf655300e502d32.68 AVAX0.000709833.8
0xd73db1df14092cce6e0fa4142a0f34b85d88932c2a9a2ca9d90f26af99094b51Update199124392022-09-15 22:05:06139 days 1 hr ago0xb0861d127415a601c0c2e990317bf655300e502dOUT 0x88888888847df39cf1dfe1a05c904b4e603c94160 AVAX0.00407699184 26.94
0x7e6a78de5cd04af25b2faca614830b8bcf9997828924373c52bd84777e2d25c1Swap AVAX For Ex...199123722022-09-15 22:02:04139 days 1 hr ago0xb0861d127415a601c0c2e990317bf655300e502dOUT Trader Joe: Router0.628229321609534 AVAX0.0035159935 26.5
0x8564217ba02bef8c6d60db00fcbf0e7779c585a679bd541009f414bb1c303a82Transfer199123422022-09-15 22:00:45139 days 1 hr ago0xd1c442e9e2de99d95036bb13ec07c94c6fb8fc03 IN 0xb0861d127415a601c0c2e990317bf655300e502d0.4 AVAX0.0005565 26.5
0xee7849f363dbf4b2c53b828021efe6ffe8b16be352e7ad4d607896e0f9609265Swap AVAX For Ex...199123152022-09-15 21:59:36139 days 1 hr ago0xb0861d127415a601c0c2e990317bf655300e502dOUT Trader Joe: Router17.558718094625 AVAX0.0039694615 26.5
0x6126faaeb627cbb3425642ff92d18f812046721cb396be71a1de4d45495ac28cTransfer199122982022-09-15 21:58:55139 days 1 hr ago0xd1c442e9e2de99d95036bb13ec07c94c6fb8fc03 IN 0xb0861d127415a601c0c2e990317bf655300e502d17.5 AVAX0.0005565 26.5
0xca67b1b30b0e751f4df8c7c6227b2723521344039428b3f06951427c1d5cc797Update198774582022-09-14 21:34:43140 days 1 hr ago0xb0861d127415a601c0c2e990317bf655300e502dOUT 0x88888888847df39cf1dfe1a05c904b4e603c94160 AVAX0.004281478124 27.2816825
0x130cebff974fb08cb550a1f65b26b195c345432d5b71471be9cd4bb372f37d8eSwap AVAX For Ex...198774302022-09-14 21:33:27140 days 1 hr ago0xb0861d127415a601c0c2e990317bf655300e502dOUT Trader Joe: Router13.19442362564935 AVAX0.004086550503 27.2816825
[ Download CSV Export 
Latest 5 internal transactions
Parent Txn Hash Block From To Value
0x7e6a78de5cd04af25b2faca614830b8bcf9997828924373c52bd84777e2d25c1199123722022-09-15 22:02:04139 days 1 hr ago Trader Joe: Router0xb0861d127415a601c0c2e990317bf655300e502d0.003125519012982758 AVAX
0xee7849f363dbf4b2c53b828021efe6ffe8b16be352e7ad4d607896e0f9609265199123152022-09-15 21:59:36139 days 1 hr ago Trader Joe: Router0xb0861d127415a601c0c2e990317bf655300e502d0.087356806440920402 AVAX
0x130cebff974fb08cb550a1f65b26b195c345432d5b71471be9cd4bb372f37d8e198774302022-09-14 21:33:27140 days 1 hr ago Trader Joe: Router0xb0861d127415a601c0c2e990317bf655300e502d0.065643898635071395 AVAX
0x781713ac4105793616e2775606776790a620891a2998b5dd4ef2b7658726b852198087832022-09-12 21:03:52142 days 2 hrs ago Trader Joe: Router0xb0861d127415a601c0c2e990317bf655300e502d0.075729242117553207 AVAX
0x3e97a0f1e7da9a093d504261bba7ed8e7fc21253fd8cb9bf3126741661ecb382196915112022-09-08 21:56:03146 days 1 hr ago Trader Joe: Router0xb0861d127415a601c0c2e990317bf655300e502d0.091213710510506019 AVAX
[ Download CSV Export 
Loading

Contract Name:
0

Compiler Version
0

Optimization Enabled:
0

Other Settings:
-NA-
Block Transaction Gas Used Reward
Age Block Fee Address BC Fee Address Voting Power Jailed Incoming
Block Uncle Number Difficulty Gas Used Reward
Loading
Make sure to use the "Vote Down" button for any spammy posts, and the "Vote Up" for interesting conversations.